Terminal Aerodrome Forecast
Issued by NWS Cleveland, OH

Home | Current Version | Previous Version | Text Only | Print | Product List | Glossary Off
Versions: 1 2 3 4 5 6 7 8 9 10 11 12 13 14 15 16 17 18 19 20 21 22 23 24 25 26 27

518
FTUS41 KCLE 200255 AAA
TAFCLE
TAF AMD
KCLE 200255Z 2003/2106 05010KT P6SM VCSH BKN040
      TEMPO 2003/2005 BKN009
     FM200700 06008KT P6SM BKN030
     FM201600 06008KT P6SM BKN050
     FM210300 12011KT P6SM SCT080=

USA.gov is the U.S. government's official web portal to all federal, state and local government web resources and services.